Time;durP1;ratioP1;P1;durP2;ratioP2;P2;SDS_P1;SDS_P2;PMS_P1;PMS_P2;Temp;Humidity;BMP_temperature;BMP_pressure;BME280_temperature;BME280_humidity;BME280_pressure;Samples;Min_cycle;Max_cycle;Signal;HPM_P1;HPM_P2
2022/08/11 00:00:00;;;;;;;7.63;5.50;;;17.70;99.90;;;;;;4982538;28;20499;-83
2022/08/11 00:02:40;;;;;;;6.32;5.53;;;17.60;99.90;;;;;;4998878;28;20081;-83
2022/08/11 00:05:18;;;;;;;5.95;5.32;;;17.60;99.90;;;;;;4968439;28;20056;-83
2022/08/11 00:07:55;;;;;;;9.23;5.57;;;17.60;99.90;;;;;;4982899;28;20038;-83
2022/08/11 00:10:24;;;;;;;6.32;5.60;;;17.50;99.90;;;;;;5002943;28;20548;-83
2022/08/11 00:12:56;;;;;;;8.63;6.30;;;17.50;99.90;;;;;;4994505;28;20093;-82
2022/08/11 00:15:25;;;;;;;7.97;6.20;;;17.50;99.90;;;;;;4998303;28;20053;-83
2022/08/11 00:18:01;;;;;;;10.60;6.72;;;17.50;99.90;;;;;;4967953;28;20046;-83
2022/08/11 00:20:32;;;;;;;6.20;5.60;;;17.40;99.90;;;;;;4985098;28;20053;-82
2022/08/11 00:23:16;;;;;;;10.95;7.35;;;17.40;99.90;;;;;;5019004;28;20084;-83
2022/08/11 00:25:48;;;;;;;9.95;6.18;;;17.40;99.90;;;;;;4991989;28;20077;-82
2022/08/11 00:28:28;;;;;;;8.68;6.68;;;17.40;99.90;;;;;;4980286;28;20045;-82
2022/08/11 00:30:58;;;;;;;9.73;6.85;;;17.40;99.90;;;;;;5005145;28;20046;-82
2022/08/11 00:33:32;;;;;;;9.55;6.97;;;17.30;99.90;;;;;;4970913;28;20054;-82
2022/08/11 00:36:01;;;;;;;9.23;7.10;;;17.30;99.90;;;;;;5002893;28;20509;-83
2022/08/11 00:38:31;;;;;;;8.73;6.72;;;17.20;99.90;;;;;;5003393;28;20961;-83
2022/08/11 00:41:29;;;;;;;8.50;6.68;;;17.20;99.90;;;;;;4965553;28;20074;-82
2022/08/11 00:44:20;;;;;;;7.30;6.10;;;17.30;99.90;;;;;;4967406;28;20675;-83
2022/08/11 00:46:46;;;;;;;7.70;5.97;;;17.20;99.90;;;;;;4981840;28;20052;-83
2022/08/11 00:49:37;;;;;;;7.88;7.07;;;17.20;99.90;;;;;;4980281;28;20054;-83
2022/08/11 00:52:35;;;;;;;10.50;6.65;;;17.10;99.90;;;;;;4982872;28;20133;-82
2022/08/11 00:55:07;;;;;;;8.68;6.38;;;17.20;99.90;;;;;;5000891;28;20049;-82
2022/08/11 00:57:56;;;;;;;7.05;6.35;;;17.10;99.90;;;;;;4954832;28;20050;-82
2022/08/11 01:00:33;;;;;;;12.10;7.13;;;17.10;99.90;;;;;;4912814;28;20713;-82
2022/08/11 01:03:12;;;;;;;7.93;7.10;;;17.00;99.90;;;;;;4999104;28;20050;-82
2022/08/11 01:05:59;;;;;;;9.75;7.40;;;17.00;99.90;;;;;;4948801;28;20067;-82
2022/08/11 01:09:03;;;;;;;11.57;7.57;;;17.00;99.90;;;;;;4998734;28;20127;-82
2022/08/11 01:12:14;;;;;;;7.65;6.90;;;17.00;99.90;;;;;;4965596;28;20069;-82
2022/08/11 01:15:18;;;;;;;9.88;6.97;;;16.90;99.90;;;;;;4956496;28;20049;-82
2022/08/11 01:18:13;;;;;;;9.40;7.97;;;16.90;99.90;;;;;;4984456;28;20061;-82
2022/08/11 01:21:15;;;;;;;10.50;7.32;;;16.90;99.90;;;;;;4949678;28;20104;-82
2022/08/11 01:23:59;;;;;;;7.78;7.05;;;16.90;99.90;;;;;;4969452;28;20449;-82
2022/08/11 01:26:47;;;;;;;8.85;7.70;;;16.90;99.90;;;;;;5004422;28;20057;-82
2022/08/11 01:29:50;;;;;;;9.27;8.07;;;16.80;99.90;;;;;;4983043;28;20582;-82
2022/08/11 01:32:46;;;;;;;9.05;7.45;;;16.80;99.90;;;;;;4969661;28;20037;-82
2022/08/11 01:35:49;;;;;;;8.60;7.38;;;16.80;99.90;;;;;;4968283;28;20056;-81
2022/08/11 01:39:07;;;;;;;7.65;6.85;;;16.80;99.90;;;;;;4968198;28;20037;-82
2022/08/11 01:45:20;;;;;;;9.43;7.63;;;16.70;99.90;;;;;;4969447;28;20404;-81
2022/08/11 01:48:12;;;;;;;8.50;7.40;;;16.70;99.90;;;;;;4977422;28;20115;-82
2022/08/11 01:50:41;;;;;;;;;;;16.60;99.90;;;;;;4982303;28;20041;-82
2022/08/11 01:53:19;;;;;;;9.85;7.35;;;16.60;99.90;;;;;;4967332;28;19918;-82
2022/08/11 01:56:08;;;;;;;10.65;8.25;;;16.60;99.90;;;;;;5004383;28;20488;-82
2022/08/11 01:59:06;;;;;;;10.18;7.65;;;16.50;99.90;;;;;;4935422;28;20506;-82
2022/08/11 02:01:36;;;;;;;10.85;7.75;;;16.50;99.90;;;;;;4936282;28;20042;-82
2022/08/11 02:04:42;;;;;;;9.55;8.55;;;16.50;99.90;;;;;;5021184;28;20054;-82
2022/08/11 02:07:29;;;;;;;8.90;8.00;;;16.50;99.90;;;;;;4968441;28;20054;-82
2022/08/11 02:13:56;;;;;;;10.60;8.38;;;16.40;99.90;;;;;;4983891;28;20179;-82
2022/08/11 02:16:56;;;;;;;11.93;10.18;;;16.40;99.90;;;;;;4965942;28;20802;-82
2022/08/11 02:25:49;;;;;;;13.40;9.43;;;16.30;99.90;;;;;;4997631;28;20045;-81
2022/08/11 02:28:15;;;;;;;11.30;9.90;;;16.40;99.90;;;;;;4984761;28;20046;-80
2022/08/11 02:34:39;;;;;;;10.85;9.77;;;16.30;99.90;;;;;;4966940;28;20437;-81
2022/08/11 02:37:23;;;;;;;10.88;9.77;;;16.30;99.90;;;;;;4996657;28;20107;-81
2022/08/11 02:40:15;;;;;;;12.40;10.40;;;16.30;99.90;;;;;;4967590;28;20502;-82
2022/08/11 02:42:50;;;;;;;;;;;16.20;99.90;;;;;;5009013;28;20103;-81
2022/08/11 02:45:45;;;;;;;13.25;10.93;;;16.20;99.90;;;;;;5001453;28;19921;-82
2022/08/11 02:51:39;;;;;;;11.00;10.00;;;16.10;99.90;;;;;;4982936;28;20057;-82
2022/08/11 02:54:12;;;;;;;13.80;11.38;;;16.10;99.90;;;;;;4973289;28;20514;-82
2022/08/11 02:57:11;;;;;;;13.05;10.55;;;16.10;99.90;;;;;;4951504;28;20084;-82
2022/08/11 02:59:54;;;;;;;12.20;11.00;;;16.10;99.90;;;;;;4987455;28;20042;-82
2022/08/11 03:02:40;;;;;;;14.35;11.45;;;16.00;99.90;;;;;;4968420;28;20214;-82
2022/08/11 03:05:19;;;;;;;13.00;11.70;;;16.10;99.90;;;;;;4966150;28;20476;-82
2022/08/11 03:07:59;;;;;;;12.98;10.77;;;16.00;99.90;;;;;;4980617;28;20046;-84
2022/08/11 03:10:34;;;;;;;11.90;10.43;;;16.00;99.90;;;;;;4934053;28;20053;-83
2022/08/11 03:16:47;;;;;;;14.30;12.27;;;16.00;99.90;;;;;;4981919;28;20057;-82
2022/08/11 03:19:34;;;;;;;14.20;12.23;;;15.90;99.90;;;;;;4981327;28;20053;-83
2022/08/11 03:22:20;;;;;;;14.32;12.82;;;15.90;99.90;;;;;;4964595;28;20037;-82
2022/08/11 03:25:30;;;;;;;14.68;13.18;;;15.90;99.90;;;;;;5005878;28;20084;-82
2022/08/11 03:28:15;;;;;;;14.02;12.63;;;15.80;99.90;;;;;;4950157;28;20049;-82
2022/08/11 03:30:55;;;;;;;15.00;13.43;;;15.80;99.90;;;;;;4949734;28;20056;-83
2022/08/11 03:36:35;;;;;;;15.48;12.05;;;15.80;99.90;;;;;;4988126;28;20044;-82
2022/08/11 03:39:07;;;;;;;14.80;13.27;;;15.80;99.90;;;;;;4935716;28;20406;-82
2022/08/11 03:41:52;;;;;;;;;;;15.80;99.90;;;;;;4935284;28;20041;-81
2022/08/11 03:44:24;;;;;;;15.15;12.80;;;15.80;99.90;;;;;;4985247;28;20011;-82
2022/08/11 03:46:50;;;;;;;14.75;12.88;;;15.70;99.90;;;;;;4973624;28;20056;-82
2022/08/11 03:49:28;;;;;;;15.13;13.23;;;15.70;99.90;;;;;;4934351;28;20248;-82
2022/08/11 03:52:32;;;;;;;14.07;12.73;;;15.70;99.90;;;;;;4945347;28;20042;-82
2022/08/11 03:55:23;;;;;;;14.23;12.68;;;15.70;99.90;;;;;;4930675;28;20155;-81
2022/08/11 03:58:19;;;;;;;15.68;14.05;;;15.70;99.90;;;;;;4947701;28;20046;-81
2022/08/11 04:01:04;;;;;;;14.82;13.15;;;15.60;99.90;;;;;;4965639;28;20041;-81
2022/08/11 04:03:52;;;;;;;15.57;13.98;;;15.60;99.90;;;;;;4934151;28;20054;-82
2022/08/11 04:06:49;;;;;;;16.73;14.95;;;15.50;99.90;;;;;;4965637;28;20133;-82
2022/08/11 04:09:36;;;;;;;16.45;14.73;;;15.50;99.90;;;;;;4981907;28;20049;-84
2022/08/11 04:12:45;;;;;;;18.00;14.73;;;15.50;99.90;;;;;;4933638;28;20081;-81
2022/08/11 04:15:59;;;;;;;17.15;15.35;;;15.60;99.90;;;;;;4982688;28;20050;-82
2022/08/11 04:18:48;;;;;;;16.10;14.45;;;15.60;99.90;;;;;;4966288;28;20056;-82
2022/08/11 04:21:45;;;;;;;18.33;14.55;;;15.50;99.90;;;;;;5018254;28;20103;-82
2022/08/11 04:24:21;;;;;;;18.02;16.08;;;15.50;99.90;;;;;;4964353;28;20516;-82
2022/08/11 04:26:47;;;;;;;17.80;15.95;;;15.50;99.90;;;;;;4954211;28;20562;-82
2022/08/11 04:29:38;;;;;;;17.88;16.00;;;15.50;99.90;;;;;;4949257;28;20052;-83
2022/08/11 04:32:22;;;;;;;19.33;17.33;;;15.50;99.90;;;;;;4992328;28;20557;-82
2022/08/11 04:35:27;;;;;;;19.23;17.27;;;15.50;99.90;;;;;;5001605;28;20523;-82
2022/08/11 04:38:14;;;;;;;19.40;17.33;;;15.50;99.90;;;;;;4945918;28;20077;-78
2022/08/11 04:41:07;;;;;;;22.35;16.80;;;15.50;99.90;;;;;;5001892;28;20042;-79
2022/08/11 04:43:58;;;;;;;19.00;16.38;;;15.70;99.90;;;;;;4967740;28;20683;-82
2022/08/11 04:46:30;;;;;;;20.27;18.17;;;15.70;99.90;;;;;;4971240;28;20038;-80
2022/08/11 05:01:41;;;;;;;18.88;16.92;;;16.00;99.90;;;;;;5011134;28;20046;-81
2022/08/11 05:08:04;;;;;;;18.60;16.70;;;16.10;99.90;;;;;;4991821;28;20856;-82
2022/08/11 05:10:58;;;;;;;18.48;16.67;;;16.20;99.90;;;;;;4984166;28;20073;-81
2022/08/11 05:37:01;;;;;;;13.13;11.82;;;18.30;99.90;;;;;;4990846;28;20042;-78
2022/08/11 05:56:50;;;;;;;12.40;9.85;;;19.00;99.90;;;;;;4982257;28;20776;-83
2022/08/11 05:59:18;;;;;;;11.85;10.20;;;19.20;99.90;;;;;;4994765;28;20115;-82
2022/08/11 06:01:46;;;;;;;11.70;9.63;;;19.30;99.90;;;;;;4961743;28;20125;-83
2022/08/11 06:04:23;;;;;;;9.63;8.68;;;19.40;99.90;;;;;;4962853;28;20081;-83
2022/08/11 06:06:54;;;;;;;10.93;9.77;;;19.50;99.90;;;;;;4962879;28;20050;-82
2022/08/11 06:09:31;;;;;;;23.77;21.33;;;19.70;99.90;;;;;;4977934;28;20046;-76
2022/08/11 06:12:06;;;;;;;13.25;11.88;;;19.70;99.90;;;;;;4962931;28;20085;-81
2022/08/11 06:14:34;;;;;;;9.80;8.80;;;20.00;99.90;;;;;;4933595;28;20050;-81
2022/08/11 06:17:05;;;;;;;11.50;10.20;;;20.20;99.90;;;;;;4982113;28;20046;-82
2022/08/11 06:19:40;;;;;;;11.57;9.02;;;20.20;99.90;;;;;;4964974;28;20634;-80
2022/08/11 06:22:10;;;;;;;10.40;9.40;;;20.40;99.90;;;;;;4997126;28;20057;-80
2022/08/11 06:24:41;;;;;;;14.82;12.95;;;20.60;99.90;;;;;;4955924;28;20050;-80
2022/08/11 06:27:08;;;;;;;11.25;8.63;;;20.70;99.90;;;;;;4998416;28;20038;-81
2022/08/11 06:29:44;;;;;;;10.00;8.40;;;20.80;99.90;;;;;;4982406;28;20053;-77
2022/08/11 06:32:12;;;;;;;13.07;11.75;;;21.10;99.90;;;;;;4996941;28;20046;-78
2022/08/11 06:34:51;;;;;;;84.50;76.82;;;21.30;99.90;;;;;;4968142;28;20105;-82
2022/08/11 06:37:36;;;;;;;23.48;21.23;;;21.50;99.90;;;;;;4982087;28;20081;-82
2022/08/11 06:40:17;;;;;;;16.77;14.98;;;21.50;99.90;;;;;;4956858;28;20046;-83
2022/08/11 06:42:49;;;;;;;;;;;21.70;99.90;;;;;;4985211;28;20049;-83
2022/08/11 06:45:36;;;;;;;8.45;6.97;;;21.80;99.90;;;;;;4956943;28;20120;-83
2022/08/11 06:48:05;;;;;;;9.52;8.20;;;21.90;99.90;;;;;;4968198;28;20049;-83
2022/08/11 06:53:18;;;;;;;7.25;5.78;;;22.40;99.90;;;;;;5005019;28;20663;-82
2022/08/11 07:01:46;;;;;;;8.75;5.82;;;23.10;99.90;;;;;;4990494;28;20874;-83
2022/08/11 07:04:20;;;;;;;11.02;7.68;;;23.20;99.90;;;;;;4984648;28;20038;-83
2022/08/11 07:16:17;;;;;;;6.53;5.47;;;24.50;99.90;;;;;;4958339;28;20047;-83
2022/08/11 07:30:08;;;;;;;13.57;11.35;;;25.90;99.90;;;;;;4941083;28;20238;-83
2022/08/11 07:32:49;;;;;;;6.73;2.23;;;26.20;99.90;;;;;;4978418;28;20196;-79
2022/08/11 07:35:23;;;;;;;7.43;2.67;;;26.20;99.90;;;;;;4943522;28;20043;-85
2022/08/11 07:37:57;;;;;;;7.25;3.10;;;26.60;99.90;;;;;;4971695;28;20397;-87
2022/08/11 07:40:25;;;;;;;6.22;3.70;;;26.80;99.90;;;;;;4976332;28;20481;-87
2022/08/11 07:42:52;;;;;;;4.22;2.72;;;27.10;99.90;;;;;;4956839;28;20050;-87
2022/08/11 07:53:37;;;;;;;5.18;2.80;;;27.70;99.90;;;;;;4962712;28;20085;-85
2022/08/11 07:56:07;;;;;;;5.45;1.98;;;28.10;99.90;;;;;;4910120;28;20747;-86
2022/08/11 08:18:02;;;;;;;2.20;1.25;;;29.50;65.40;;;;;;4998250;28;20050;-80
2022/08/11 08:20:38;;;;;;;2.15;1.33;;;29.20;59.60;;;;;;4946616;28;20061;-79
2022/08/11 08:23:05;;;;;;;3.28;1.20;;;29.50;59.40;;;;;;4977490;28;20041;-78
2022/08/11 08:25:34;;;;;;;4.38;1.30;;;29.70;61.40;;;;;;4965960;28;20847;-82
2022/08/11 08:28:06;;;;;;;5.03;1.58;;;29.80;60.80;;;;;;4982582;28;20046;-78
2022/08/11 08:30:49;;;;;;;5.32;1.48;;;30.10;57.10;;;;;;4984122;28;20158;-85
2022/08/11 08:33:27;;;;;;;3.30;1.10;;;30.20;57.00;;;;;;4967784;28;20575;-79
2022/08/11 08:36:11;;;;;;;4.18;1.63;;;30.50;54.90;;;;;;5009455;28;20121;-84
2022/08/11 08:38:40;;;;;;;4.70;1.65;;;30.70;55.00;;;;;;4995060;28;20100;-78
2022/08/11 08:41:08;;;;;;;2.83;1.20;;;31.00;54.70;;;;;;4969429;28;20053;-80
2022/08/11 08:43:36;;;;;;;4.28;1.00;;;31.00;53.00;;;;;;4999566;28;20135;-81
2022/08/11 08:46:08;;;;;;;3.67;1.25;;;31.10;51.60;;;;;;4945595;28;20042;-81
2022/08/11 08:48:34;;;;;;;2.42;1.10;;;31.00;51.20;;;;;;5013377;28;20486;-81
2022/08/11 08:53:52;;;;;;;2.60;1.30;;;31.40;49.80;;;;;;4995136;28;20050;-81
2022/08/11 08:56:24;;;;;;;5.10;1.50;;;31.70;49.90;;;;;;4977037;28;20089;-82
2022/08/11 08:58:51;;;;;;;2.90;1.00;;;31.20;48.80;;;;;;4978472;28;20046;-82
2022/08/11 09:01:21;;;;;;;2.55;1.02;;;31.80;48.20;;;;;;4980638;28;20042;-82
2022/08/11 09:03:48;;;;;;;6.47;1.23;;;31.70;46.60;;;;;;4977387;28;20831;-82
2022/08/11 09:06:16;;;;;;;6.43;1.63;;;32.10;47.10;;;;;;4994407;28;20081;-82
2022/08/11 09:08:44;;;;;;;2.80;1.08;;;32.20;47.50;;;;;;4964086;28;20128;-81
2022/08/11 09:13:58;;;;;;;4.78;1.50;;;32.40;45.80;;;;;;4965004;28;20054;-81
2022/08/11 09:16:25;;;;;;;5.13;1.27;;;32.50;46.10;;;;;;4990436;28;20481;-79
2022/08/11 09:18:52;;;;;;;5.28;3.70;;;32.70;45.20;;;;;;4992088;28;20580;-82
2022/08/11 09:21:22;;;;;;;4.28;1.45;;;33.00;44.70;;;;;;4976274;28;20353;-82
2022/08/11 09:29:26;;;;;;;2.53;1.40;;;33.60;43.30;;;;;;4994007;28;20054;-82
2022/08/11 09:31:53;;;;;;;2.95;1.30;;;33.30;42.50;;;;;;4977865;28;20042;-81
2022/08/11 09:34:19;;;;;;;4.88;2.30;;;33.40;41.50;;;;;;4978828;28;20054;-80
2022/08/11 09:42:21;;;;;;;2.90;1.40;;;33.40;42.70;;;;;;4980135;28;20128;-82
2022/08/11 09:44:48;;;;;;;8.02;4.60;;;33.10;42.20;;;;;;4947239;28;20124;-81
2022/08/11 09:47:28;;;;;;;2.97;1.45;;;33.60;41.90;;;;;;4974693;28;20034;-82
2022/08/11 09:49:58;;;;;;;3.30;1.58;;;33.80;41.60;;;;;;4979812;28;20129;-85
2022/08/11 09:52:26;;;;;;;;;;;34.00;40.60;;;;;;4977907;28;20068;-81
2022/08/11 09:54:54;;;;;;;3.75;1.27;;;33.70;40.30;;;;;;5013622;28;19936;-84
2022/08/11 10:00:09;;;;;;;3.22;1.73;;;33.80;40.70;;;;;;4950234;28;20078;-84
2022/08/11 10:02:44;;;;;;;3.60;1.60;;;34.10;40.70;;;;;;4964612;28;20101;-84
2022/08/11 10:08:06;;;;;;;3.53;1.25;;;34.20;39.20;;;;;;4948625;28;20049;-83
2022/08/11 10:10:36;;;;;;;3.90;1.70;;;34.30;39.70;;;;;;4978068;28;20061;-82
2022/08/11 10:13:08;;;;;;;4.00;1.33;;;34.50;39.40;;;;;;5010404;28;20049;-82
2022/08/11 10:15:39;;;;;;;2.75;1.10;;;34.50;40.20;;;;;;4955542;28;20050;-82
2022/08/11 10:20:59;;;;;;;5.38;3.50;;;34.80;39.30;;;;;;4971345;28;20050;-82
2022/08/11 10:33:58;;;;;;;2.42;1.05;;;34.40;38.80;;;;;;4985814;28;20360;-79
2022/08/11 10:34:37;;;;;;;3.40;1.50;;;35.30;38.60;;;;;;5013114;28;20045;-84
2022/08/11 10:37:04;;;;;;;3.60;1.13;;;34.90;38.80;;;;;;4996472;28;20041;-83
2022/08/11 10:39:31;;;;;;;3.72;1.40;;;35.20;39.10;;;;;;5012929;28;20045;-86
2022/08/11 10:44:51;;;;;;;3.08;1.63;;;34.90;38.50;;;;;;4998411;28;20074;-82
2022/08/11 10:47:38;;;;;;;4.78;1.30;;;35.00;39.40;;;;;;5000000;28;20045;-83
2022/08/11 10:58:45;;;;;;;3.13;1.35;;;35.90;38.60;;;;;;4986454;28;20042;-85
2022/08/11 11:01:13;;;;;;;4.15;1.63;;;35.60;37.30;;;;;;5016281;28;20117;-85
2022/08/11 11:03:40;;;;;;;6.03;2.55;;;35.80;37.50;;;;;;4950872;28;20076;-85
2022/08/11 11:06:43;;;;;;;1.80;1.13;;;36.00;37.20;;;;;;4966960;28;20799;-85
2022/08/11 11:09:20;;;;;;;6.35;3.03;;;36.00;36.10;;;;;;4979694;28;20084;-84
2022/08/11 11:18:10;;;;;;;4.50;1.85;;;35.70;36.60;;;;;;4965278;28;20052;-82
2022/08/11 11:20:56;;;;;;;3.47;1.45;;;35.90;35.90;;;;;;4953538;28;20223;-85
2022/08/11 11:23:35;;;;;;;5.63;3.15;;;35.70;36.30;;;;;;4999720;28;20096;-81
2022/08/11 11:26:09;;;;;;;4.83;2.77;;;36.20;36.70;;;;;;4997188;28;20119;-80
2022/08/11 11:29:05;;;;;;;9.80;8.73;;;36.30;36.40;;;;;;4970130;28;20050;-83
2022/08/11 11:31:56;;;;;;;4.47;1.65;;;36.20;37.70;;;;;;4966394;28;20137;-82
2022/08/11 11:34:59;;;;;;;7.45;6.65;;;36.70;36.30;;;;;;4996356;28;20074;-82
2022/08/11 11:37:28;;;;;;;4.97;1.40;;;36.70;36.40;;;;;;4976648;28;20046;-78
2022/08/11 11:39:56;;;;;;;2.55;1.20;;;36.30;35.20;;;;;;4983215;28;20065;-81
2022/08/11 11:42:23;;;;;;;6.07;3.28;;;36.40;35.50;;;;;;4963262;28;20031;-81
2022/08/11 11:44:49;;;;;;;9.73;7.10;;;36.50;35.20;;;;;;4983885;28;20046;-80
2022/08/11 11:47:21;;;;;;;5.32;3.25;;;36.60;35.60;;;;;;4979807;28;20042;-82
2022/08/11 11:49:49;;;;;;;14.57;13.15;;;36.50;35.00;;;;;;4981577;28;20651;-83
2022/08/11 11:52:18;;;;;;;3.92;1.20;;;36.10;34.60;;;;;;4998629;28;20096;-82
2022/08/11 11:54:50;;;;;;;1.67;1.23;;;36.30;35.10;;;;;;4971092;28;20046;-82
2022/08/11 12:03:04;;;;;;;9.02;8.07;;;36.30;35.50;;;;;;4997191;28;20049;-81
2022/08/11 12:05:33;;;;;;;5.53;3.88;;;36.20;35.90;;;;;;4999915;28;20054;-82
2022/08/11 12:08:17;;;;;;;6.75;4.70;;;36.90;35.70;;;;;;4998337;28;20482;-82
2022/08/11 12:10:49;;;;;;;8.05;5.07;;;37.10;35.50;;;;;;4968292;28;20830;-82
2022/08/11 12:16:04;;;;;;;5.85;4.22;;;37.20;34.80;;;;;;4966589;28;20050;-82
2022/08/11 12:18:34;;;;;;;5.63;3.08;;;37.20;34.40;;;;;;4975857;28;20058;-81
2022/08/11 12:21:02;;;;;;;14.68;13.23;;;37.50;34.30;;;;;;5011715;28;20071;-81
2022/08/11 12:29:04;;;;;;;7.65;6.90;;;37.20;35.10;;;;;;4998262;28;20500;-82
2022/08/11 12:31:31;;;;;;;6.45;5.47;;;37.30;34.50;;;;;;4978439;28;20761;-82
2022/08/11 12:34:07;;;;;;;3.80;2.15;;;37.30;34.50;;;;;;4982505;28;20674;-82
2022/08/11 12:36:39;;;;;;;4.88;1.10;;;37.40;34.40;;;;;;4964281;28;20038;-81
2022/08/11 12:39:08;;;;;;;4.63;1.42;;;37.50;34.10;;;;;;4967237;28;20131;-82
2022/08/11 12:47:12;;;;;;;3.63;1.10;;;37.30;34.60;;;;;;4981566;28;20115;-81
2022/08/11 12:52:34;;;;;;;8.07;7.25;;;37.30;33.40;;;;;;4996246;28;20050;-82
2022/08/11 12:58:14;;;;;;;4.55;1.58;;;36.90;34.20;;;;;;4994400;28;20074;-81
2022/08/11 12:58:16;;;;;;;4.80;1.17;;;36.70;33.80;;;;;;4981910;28;20046;-81
2022/08/11 13:06:22;;;;;;;3.33;1.52;;;37.40;33.80;;;;;;4987179;28;20053;-81
2022/08/11 13:08:48;;;;;;;3.90;2.60;;;37.00;33.90;;;;;;4986210;28;20042;-81
2022/08/11 13:14:02;;;;;;;8.93;2.85;;;37.40;33.60;;;;;;4985372;28;20046;-82
2022/08/11 13:17:19;;;;;;;4.65;1.60;;;37.30;33.90;;;;;;4980908;28;20046;-82
2022/08/11 13:19:20;;;;;;;3.83;1.70;;;37.10;34.20;;;;;;4985913;28;20540;-82
2022/08/11 13:21:48;;;;;;;3.25;1.85;;;37.60;34.00;;;;;;4984831;28;20042;-82
2022/08/11 13:24:17;;;;;;;8.23;4.13;;;37.70;33.60;;;;;;5010563;28;20057;-82
2022/08/11 13:26:45;;;;;;;3.50;2.85;;;38.10;33.90;;;;;;4973952;28;20050;-82
2022/08/11 13:29:13;;;;;;;5.38;2.35;;;38.00;33.90;;;;;;4988252;28;20089;-81
2022/08/11 13:31:41;;;;;;;4.25;2.50;;;38.20;33.60;;;;;;5002570;28;20132;-82
2022/08/11 13:34:08;;;;;;;4.20;2.60;;;38.00;33.20;;;;;;5004472;28;20550;-82
2022/08/11 13:36:35;;;;;;;4.55;2.28;;;37.80;33.40;;;;;;4984799;28;20594;-82
2022/08/11 13:39:02;;;;;;;4.43;1.67;;;38.10;33.60;;;;;;4997920;28;20459;-81
2022/08/11 13:41:38;;;;;;;3.72;1.77;;;38.10;33.30;;;;;;4993192;28;20057;-82
2022/08/11 13:44:11;;;;;;;4.18;3.05;;;37.70;33.20;;;;;;4985030;28;20073;-82
2022/08/11 13:46:38;;;;;;;4.50;2.28;;;38.00;33.40;;;;;;4955446;28;20458;-82
2022/08/11 13:49:07;;;;;;;3.33;1.30;;;38.00;33.20;;;;;;4972077;28;20093;-82
2022/08/11 13:51:36;;;;;;;3.07;0.90;;;38.00;32.90;;;;;;4969457;28;20560;-82
2022/08/11 13:54:10;;;;;;;2.20;1.02;;;38.00;32.70;;;;;;4971035;28;20340;-82
2022/08/11 13:56:41;;;;;;;5.05;1.10;;;38.00;32.40;;;;;;5002130;28;20052;-82
2022/08/11 13:59:08;;;;;;;4.63;1.48;;;37.90;32.50;;;;;;4987115;28;20053;-82
2022/08/11 14:01:42;;;;;;;3.72;2.50;;;37.70;32.70;;;;;;4964355;28;20203;-82
2022/08/11 14:04:19;;;;;;;3.22;1.75;;;37.80;34.30;;;;;;5005143;28;20544;-83
2022/08/11 14:06:50;;;;;;;4.00;1.48;;;37.90;33.30;;;;;;4969127;28;20054;-81
2022/08/11 14:09:24;;;;;;;7.97;2.55;;;38.10;33.80;;;;;;4968851;28;20390;-84
2022/08/11 14:14:46;;;;;;;2.33;1.38;;;38.30;33.60;;;;;;4972474;28;20089;-82
2022/08/11 14:17:15;;;;;;;5.10;1.75;;;38.40;33.60;;;;;;4960241;28;20070;-82
2022/08/11 14:19:44;;;;;;;4.05;1.45;;;38.50;33.70;;;;;;4988595;28;20050;-82
2022/08/11 14:22:14;;;;;;;5.88;2.75;;;38.60;33.30;;;;;;4968413;28;20078;-82
2022/08/11 14:24:48;;;;;;;2.17;0.98;;;38.20;32.80;;;;;;4990638;28;20481;-81
2022/08/11 14:27:16;;;;;;;3.47;1.90;;;38.30;32.10;;;;;;5002528;28;20325;-83
2022/08/11 14:29:44;;;;;;;2.53;1.67;;;38.20;33.40;;;;;;4997850;28;20050;-77
2022/08/11 14:32:13;;;;;;;5.68;2.83;;;38.00;33.30;;;;;;4982726;28;20112;-83
2022/08/11 14:34:43;;;;;;;6.72;1.70;;;38.20;33.30;;;;;;4964540;28;20409;-82
2022/08/11 14:37:14;;;;;;;3.83;1.42;;;37.90;33.40;;;;;;4975586;28;20038;-81
2022/08/11 14:39:43;;;;;;;2.85;1.10;;;37.80;33.70;;;;;;4983740;28;20442;-82
2022/08/11 14:47:50;;;;;;;5.97;4.40;;;37.60;33.50;;;;;;4985554;28;20042;-82
2022/08/11 14:50:22;;;;;;;4.65;1.55;;;37.50;33.70;;;;;;4963583;28;20038;-82
2022/08/11 14:52:55;;;;;;;4.10;2.53;;;37.30;34.00;;;;;;4982555;28;20062;-77
2022/08/11 14:58:10;;;;;;;3.60;1.50;;;37.30;33.70;;;;;;5002365;28;20038;-77
2022/08/11 15:00:38;;;;;;;5.65;4.85;;;37.20;34.30;;;;;;4984204;28;20608;-76
2022/08/11 15:03:09;;;;;;;3.30;2.63;;;37.00;34.10;;;;;;4980782;28;20127;-76
2022/08/11 15:05:40;;;;;;;4.35;2.53;;;36.90;34.30;;;;;;4982697;28;20108;-76
2022/08/11 15:08:07;;;;;;;5.55;4.00;;;36.70;34.20;;;;;;4997487;28;20395;-77
2022/08/11 15:10:35;;;;;;;7.80;6.47;;;36.40;35.30;;;;;;4980593;28;20548;-76
2022/08/11 15:13:02;;;;;;;5.18;3.53;;;36.50;35.00;;;;;;4986662;28;20041;-76
2022/08/11 15:18:17;;;;;;;8.95;7.95;;;36.00;35.30;;;;;;4961311;28;20127;-76
2022/08/11 15:37:25;;;;;;;6.22;3.00;;;34.30;36.80;;;;;;4979780;28;20073;-79
2022/08/11 15:37:30;;;;;;;2.92;1.60;;;32.80;38.50;;;;;;4959152;28;21743;-76
2022/08/11 15:46:39;;;;;;;4.57;2.15;;;32.40;40.20;;;;;;4943124;28;20084;-78
2022/08/11 15:49:33;;;;;;;3.65;2.17;;;32.20;39.40;;;;;;4958187;28;20053;-79
2022/08/11 15:52:07;;;;;;;7.28;4.97;;;32.20;39.70;;;;;;4972044;28;20045;-79
2022/08/11 15:54:37;;;;;;;4.35;2.92;;;32.10;40.00;;;;;;5000834;28;20068;-78
2022/08/11 15:57:08;;;;;;;3.97;2.55;;;32.00;40.00;;;;;;4958931;28;20042;-80
2022/08/11 16:05:00;;;;;;;3.17;1.25;;;31.60;40.30;;;;;;4995169;28;20346;-79
2022/08/11 16:07:31;;;;;;;9.53;5.77;;;31.60;39.80;;;;;;4959660;28;20046;-75
2022/08/11 16:10:06;;;;;;;10.77;9.40;;;31.60;40.40;;;;;;4966084;28;20136;-77
2022/08/11 16:12:39;;;;;;;4.22;2.60;;;31.50;41.10;;;;;;4965645;28;20486;-80
2022/08/11 16:18:04;;;;;;;8.45;6.90;;;31.30;41.50;;;;;;4959784;28;20141;-81
2022/08/11 16:20:32;;;;;;;5.45;3.25;;;31.10;41.70;;;;;;4946460;28;20045;-80
2022/08/11 16:23:03;;;;;;;3.85;1.65;;;31.10;41.60;;;;;;4949210;28;20065;-81
2022/08/11 16:25:33;;;;;;;4.70;1.60;;;31.10;42.00;;;;;;4999901;28;20046;-79
2022/08/11 16:28:04;;;;;;;4.00;3.40;;;31.00;42.20;;;;;;4965081;28;20041;-80
2022/08/11 16:30:36;;;;;;;5.40;2.70;;;30.80;42.30;;;;;;4983017;28;20508;-80
2022/08/11 16:33:03;;;;;;;3.78;1.88;;;30.70;42.30;;;;;;4957415;28;20328;-81
2022/08/11 16:38:35;;;;;;;2.15;1.13;;;30.60;42.70;;;;;;4997462;28;20609;-81
2022/08/11 16:41:08;;;;;;;3.25;1.40;;;30.50;43.00;;;;;;4997523;28;20061;-81
2022/08/11 16:49:23;;;;;;;5.57;4.13;;;30.30;43.30;;;;;;4978968;28;20073;-76
2022/08/11 16:51:50;;;;;;;10.07;9.02;;;30.30;43.90;;;;;;4962857;28;20046;-82
2022/08/11 16:54:18;;;;;;;13.65;10.05;;;30.30;44.00;;;;;;4980080;28;20064;-79
2022/08/11 16:56:50;;;;;;;5.28;2.22;;;30.10;44.70;;;;;;4964290;28;20565;-81
2022/08/11 16:59:30;;;;;;;9.70;7.35;;;30.00;45.20;;;;;;4982608;28;20053;-83
2022/08/11 17:02:11;;;;;;;5.13;2.28;;;30.00;46.10;;;;;;4975851;28;20048;-81
2022/08/11 17:13:55;;;;;;;3.75;1.98;;;29.50;47.10;;;;;;5006041;28;20143;-78
2022/08/11 17:16:34;;;;;;;4.05;1.90;;;29.30;47.40;;;;;;4998448;28;20050;-80
2022/08/11 17:19:12;;;;;;;6.72;4.68;;;29.10;47.70;;;;;;4994009;28;20699;-81
2022/08/11 17:24:42;;;;;;;5.28;1.90;;;29.00;48.50;;;;;;4985138;28;20557;-81
2022/08/11 17:27:12;;;;;;;3.17;1.48;;;29.00;48.40;;;;;;4992757;28;20572;-78
2022/08/11 17:29:52;;;;;;;3.35;1.65;;;28.90;48.50;;;;;;4996153;28;20050;-79
2022/08/11 17:35:30;;;;;;;5.70;1.40;;;28.80;48.80;;;;;;4993774;28;20525;-81
2022/08/11 17:38:04;;;;;;;3.90;1.50;;;28.80;49.00;;;;;;4998362;28;20056;-80
2022/08/11 17:40:37;;;;;;;3.50;1.40;;;28.70;49.10;;;;;;4978275;28;20042;-81
2022/08/11 17:48:37;;;;;;;3.63;2.25;;;28.50;50.20;;;;;;4967019;28;20465;-78
2022/08/11 17:51:10;;;;;;;22.20;20.05;;;28.40;50.80;;;;;;4982790;28;20054;-80
2022/08/11 18:04:51;;;;;;;4.22;2.00;;;28.00;52.40;;;;;;4997732;28;20049;-80
